Oruro, Bolivia
Current Conditions -  °F | °C
As of 6:00 AM on Thursday 18 Dec 2014 (Local Time) from SLCB Reporting Station
Light Rain Light Rain  
Wind Chill: 57°   Ceiling: 7000
Heat Index: 57°   Visibility: 2.5mi
Dew Point: 54°   Wind: 0mph
Humidity: 88%   Direction: NA
Pressure: 30.27"   Gusts: NA
Location:  17.98°S, 67.12°W
Report Text: SLCB 181000Z 00000KT 4000NW -RA FEW010 SCT025 FEW027CB OVC07014/12 Q1025
Loading
Personal Weather Stations






























Interactive Weather Map New forecast layout! Learn more

10-Day Weather Forecast

Advertisements
Track Severe Weather on mobile